createdAt,value
2018-12-31T00:04:28.255Z,20.23
2018-12-31T00:09:33.409Z,22.77
2018-12-31T00:14:42.097Z,18.40
2018-12-31T00:19:50.619Z,20.03
2018-12-31T00:24:57.972Z,16.67
2018-12-31T00:30:02.505Z,21.73
2018-12-31T00:35:07.407Z,17.37
2018-12-31T00:40:11.842Z,21.03
2018-12-31T00:45:16.509Z,18.63
2018-12-31T00:50:21.609Z,18.13
2018-12-31T00:55:27.751Z,19.17
2018-12-31T01:00:32.260Z,21.40
2018-12-31T01:05:37.475Z,18.20
2018-12-31T01:10:42.129Z,21.53
2018-12-31T01:15:46.848Z,18.03
2018-12-31T01:20:51.418Z,20.03
2018-12-31T01:25:55.909Z,13.53
2018-12-31T01:31:01.017Z,14.33
2018-12-31T01:36:05.605Z,19.00
2018-12-31T01:41:10.776Z,20.03
2018-12-31T01:46:15.631Z,19.67
2018-12-31T01:51:20.634Z,22.13
2018-12-31T01:56:25.461Z,16.80
2018-12-31T02:01:35.020Z,19.40
2018-12-31T02:06:43.420Z,16.40
2018-12-31T02:11:48.720Z,19.60
2018-12-31T02:16:53.036Z,20.37
2018-12-31T02:21:57.637Z,13.07
2018-12-31T02:27:05.545Z,17.97
2018-12-31T02:32:10.492Z,18.67
2018-12-31T02:37:17.678Z,13.00
2018-12-31T02:42:22.340Z,12.83
2018-12-31T02:47:27.612Z,14.40
2018-12-31T02:52:32.564Z,17.10
2018-12-31T02:57:37.397Z,12.50
2018-12-31T03:02:41.683Z,13.10
2018-12-31T03:07:46.241Z,7.80
2018-12-31T03:12:55.382Z,12.37
2018-12-31T03:18:03.760Z,9.47
2018-12-31T03:23:09.206Z,7.80
2018-12-31T03:28:13.919Z,9.30
2018-12-31T03:33:18.263Z,11.53
2018-12-31T03:38:23.373Z,9.77
2018-12-31T03:43:28.455Z,11.53
2018-12-31T03:48:36.106Z,11.95
2018-12-31T03:53:41.119Z,11.90
2018-12-31T03:58:45.879Z,14.43
2018-12-31T04:03:50.246Z,13.30
2018-12-31T04:08:58.422Z,10.87
2018-12-31T04:14:03.102Z,11.77
2018-12-31T04:19:10.268Z,17.53
2018-12-31T04:24:14.998Z,7.43
2018-12-31T04:29:19.261Z,11.27
2018-12-31T04:34:24.848Z,10.60
2018-12-31T04:39:30.052Z,10.90
2018-12-31T04:44:34.800Z,12.37
2018-12-31T04:49:39.437Z,14.80
2018-12-31T04:54:44.309Z,7.37
2018-12-31T04:59:49.907Z,11.40
2018-12-31T05:04:54.940Z,7.27
2018-12-31T05:10:00.317Z,9.27
2018-12-31T05:15:04.943Z,9.45
2018-12-31T05:20:09.690Z,9.60
2018-12-31T05:25:14.023Z,6.77
2018-12-31T05:30:18.830Z,9.37
2018-12-31T05:35:25.081Z,7.40
2018-12-31T05:40:32.700Z,7.97
2018-12-31T05:45:37.700Z,12.93
2018-12-31T05:50:42.370Z,6.10
2018-12-31T05:55:46.604Z,6.73
2018-12-31T06:00:53.177Z,6.47
2018-12-31T06:05:57.884Z,7.80
2018-12-31T06:11:02.829Z,6.30
2018-12-31T06:16:08.627Z,5.77
2018-12-31T06:21:16.173Z,7.10
2018-12-31T06:26:21.081Z,6.77
2018-12-31T06:31:26.087Z,6.87
2018-12-31T06:36:31.426Z,6.75
2018-12-31T06:41:37.880Z,5.90
2018-12-31T06:46:45.014Z,8.40
2018-12-31T06:51:49.606Z,9.70
2018-12-31T06:56:55.057Z,3.93
2018-12-31T07:01:59.381Z,5.67
2018-12-31T07:07:04.106Z,7.83
2018-12-31T07:12:09.938Z,9.98
2018-12-31T07:17:15.038Z,5.10
2018-12-31T07:22:20.039Z,7.80
2018-12-31T07:27:26.013Z,4.87
2018-12-31T07:32:35.163Z,7.83
2018-12-31T07:37:39.726Z,8.37
2018-12-31T07:42:44.265Z,6.90
2018-12-31T07:47:50.857Z,6.07
2018-12-31T07:52:55.558Z,5.17
2018-12-31T07:58:00.140Z,6.47
2018-12-31T08:03:04.510Z,5.83
2018-12-31T08:08:10.039Z,6.17
2018-12-31T08:13:17.047Z,3.90
2018-12-31T08:18:23.084Z,3.77
2018-12-31T08:23:28.450Z,6.07
2018-12-31T08:28:34.796Z,4.23
2018-12-31T08:33:39.916Z,3.67
2018-12-31T08:38:44.889Z,3.57
2018-12-31T08:43:51.590Z,5.73
2018-12-31T08:48:58.110Z,6.10
2018-12-31T08:54:03.012Z,6.63
2018-12-31T08:59:08.991Z,4.13
2018-12-31T09:04:13.348Z,3.10
2018-12-31T09:09:20.035Z,4.10
2018-12-31T09:14:29.294Z,4.20
2018-12-31T09:19:33.927Z,2.65
2018-12-31T09:24:44.598Z,3.17
2018-12-31T09:29:45.222Z,3.73
2018-12-31T09:34:49.767Z,3.03
2018-12-31T09:39:55.590Z,3.87
2018-12-31T09:45:01.846Z,4.80
2018-12-31T09:50:06.853Z,6.17
2018-12-31T09:55:12.016Z,5.30
2018-12-31T10:00:18.790Z,2.90
2018-12-31T10:05:23.659Z,2.80
2018-12-31T10:10:28.679Z,3.43
2018-12-31T10:15:33.533Z,2.90
2018-12-31T10:20:38.138Z,3.00
2018-12-31T10:25:43.886Z,3.13
2018-12-31T10:30:49.071Z,2.55
2018-12-31T10:35:54.640Z,2.30
2018-12-31T10:41:02.452Z,3.17
2018-12-31T10:46:07.848Z,2.95
2018-12-31T10:51:13.836Z,3.17
2018-12-31T10:56:20.267Z,4.47
2018-12-31T11:01:26.658Z,4.10
2018-12-31T11:06:34.749Z,2.50
2018-12-31T11:11:39.548Z,2.50
2018-12-31T11:16:44.269Z,2.70
2018-12-31T11:21:48.915Z,3.43
2018-12-31T11:26:56.181Z,2.30
2018-12-31T11:32:01.565Z,2.67
2018-12-31T11:37:06.132Z,4.17
2018-12-31T11:42:11.379Z,2.43
2018-12-31T11:47:16.086Z,3.23
2018-12-31T11:52:23.019Z,6.63
2018-12-31T11:57:28.461Z,5.00
2018-12-31T12:02:33.935Z,2.20
2018-12-31T12:07:38.750Z,2.72
2018-12-31T12:12:46.533Z,3.77
2018-12-31T12:17:51.442Z,3.03
2018-12-31T12:22:56.618Z,3.75
2018-12-31T12:28:05.300Z,2.43
2018-12-31T12:33:09.993Z,3.15
2018-12-31T12:38:15.181Z,2.05
2018-12-31T12:43:20.044Z,2.40
2018-12-31T12:48:24.841Z,2.20
2018-12-31T12:53:29.834Z,1.43
2018-12-31T12:58:36.411Z,1.90
2018-12-31T13:03:46.479Z,2.97
2018-12-31T13:08:51.163Z,1.17
2018-12-31T13:13:56.238Z,1.40
2018-12-31T13:19:01.499Z,1.53
2018-12-31T13:24:06.498Z,2.13
2018-12-31T13:29:11.119Z,1.70
2018-12-31T13:34:16.321Z,1.83
2018-12-31T13:39:21.030Z,3.80
2018-12-31T13:44:26.789Z,3.70
2018-12-31T13:49:31.374Z,6.47
2018-12-31T13:54:40.014Z,8.93
2018-12-31T13:59:45.788Z,4.03
2018-12-31T14:04:50.720Z,7.30
2018-12-31T14:09:55.014Z,4.77
2018-12-31T14:15:00.269Z,5.70
2018-12-31T14:20:06.303Z,6.23
2018-12-31T14:25:10.891Z,7.27
2018-12-31T14:30:18.721Z,5.80
2018-12-31T14:35:24.688Z,5.67
2018-12-31T14:40:29.978Z,9.23
2018-12-31T14:45:34.966Z,7.47
2018-12-31T14:50:39.559Z,5.33
2018-12-31T14:55:44.559Z,6.70
2018-12-31T15:00:49.353Z,8.17
2018-12-31T15:05:58.836Z,6.80
2018-12-31T15:11:03.957Z,5.80
2018-12-31T15:16:09.939Z,7.30
2018-12-31T15:21:15.449Z,6.67
2018-12-31T15:26:20.175Z,6.90
2018-12-31T15:31:24.529Z,6.67
2018-12-31T15:36:29.404Z,9.23
2018-12-31T15:41:35.104Z,9.07
2018-12-31T15:46:39.688Z,6.45
2018-12-31T15:51:45.664Z,8.93
2018-12-31T15:56:50.642Z,8.10
2018-12-31T16:01:55.009Z,11.83
2018-12-31T16:06:59.832Z,8.47
2018-12-31T16:12:04.771Z,7.37
2018-12-31T16:17:10.774Z,7.63
2018-12-31T16:22:15.936Z,10.50
2018-12-31T16:27:20.383Z,7.47
2018-12-31T16:32:30.178Z,9.97
2018-12-31T16:37:36.979Z,11.83
2018-12-31T16:42:41.696Z,11.57
2018-12-31T16:47:46.583Z,9.67
2018-12-31T16:52:52.022Z,12.07
2018-12-31T16:57:56.417Z,9.37
2018-12-31T17:03:01.213Z,9.97
2018-12-31T17:08:06.024Z,10.77
2018-12-31T17:13:11.378Z,9.45
2018-12-31T17:18:16.002Z,8.17
2018-12-31T17:23:22.566Z,10.43
2018-12-31T17:28:27.881Z,9.10
2018-12-31T17:33:32.402Z,8.80
2018-12-31T17:38:37.493Z,9.03
2018-12-31T17:43:42.981Z,13.13
2018-12-31T17:48:47.683Z,10.90
2018-12-31T17:53:52.700Z,9.80
2018-12-31T17:58:57.729Z,9.97
2018-12-31T18:04:03.001Z,8.20
2018-12-31T18:09:08.106Z,12.40
2018-12-31T18:14:12.662Z,12.47
2018-12-31T18:19:17.839Z,9.75
2018-12-31T18:24:23.747Z,10.07
2018-12-31T18:29:28.942Z,10.40
2018-12-31T18:34:34.096Z,10.30
2018-12-31T18:39:49.402Z,15.93
2018-12-31T18:44:47.603Z,14.63
2018-12-31T18:49:52.717Z,9.17
2018-12-31T18:54:57.031Z,8.40
2018-12-31T19:00:02.663Z,8.27
2018-12-31T19:05:11.268Z,11.53
2018-12-31T19:10:16.688Z,12.13
2018-12-31T19:15:23.112Z,12.70
2018-12-31T19:20:30.753Z,44.13
2018-12-31T19:25:36.111Z,64.23
2018-12-31T19:30:43.498Z,62.53
2018-12-31T19:35:49.333Z,18.23
2018-12-31T19:40:54.287Z,27.30
2018-12-31T19:45:58.786Z,27.60
2018-12-31T19:51:05.695Z,19.67
2018-12-31T19:56:15.008Z,23.97
2018-12-31T20:01:25.055Z,22.13
2018-12-31T20:06:29.470Z,15.57
2018-12-31T20:11:34.393Z,22.93
2018-12-31T20:16:42.333Z,18.70
2018-12-31T20:21:47.045Z,20.97
2018-12-31T20:26:53.124Z,21.77
2018-12-31T20:31:59.175Z,16.97
2018-12-31T20:37:04.752Z,17.73
2018-12-31T20:42:09.683Z,13.33
2018-12-31T20:47:14.698Z,14.07
2018-12-31T20:52:19.397Z,15.53
2018-12-31T20:57:24.782Z,16.57
2018-12-31T21:02:32.303Z,21.27
2018-12-31T21:07:38.107Z,20.20
2018-12-31T21:12:47.194Z,24.53
2018-12-31T21:17:52.371Z,29.33
2018-12-31T21:22:58.241Z,27.20
2018-12-31T21:28:04.359Z,33.30
2018-12-31T21:33:12.716Z,32.93
2018-12-31T21:38:17.424Z,33.80
2018-12-31T21:43:22.932Z,33.40
2018-12-31T21:48:34.584Z,35.40
2018-12-31T21:53:39.757Z,31.47
2018-12-31T21:58:44.645Z,24.47
2018-12-31T22:03:49.856Z,20.57
2018-12-31T22:08:54.434Z,38.53
2018-12-31T22:13:59.923Z,30.33
2018-12-31T22:19:05.000Z,17.63
2018-12-31T22:24:10.590Z,17.40
2018-12-31T22:29:15.372Z,14.43
2018-12-31T22:34:20.106Z,25.87
2018-12-31T22:39:27.456Z,21.07
2018-12-31T22:44:32.335Z,17.50
2018-12-31T22:49:36.974Z,21.90
2018-12-31T22:54:41.825Z,17.57
2018-12-31T22:59:47.136Z,11.00
2018-12-31T23:04:54.848Z,12.87
2018-12-31T23:09:59.585Z,18.73
2018-12-31T23:15:07.924Z,43.77
2018-12-31T23:20:13.131Z,113.43
2018-12-31T23:25:17.946Z,57.70
2018-12-31T23:30:23.256Z,64.90
2018-12-31T23:35:27.943Z,94.85
2018-12-31T23:40:36.093Z,73.30
2018-12-31T23:45:40.922Z,72.20
2018-12-31T23:50:48.274Z,40.48
2018-12-31T23:55:52.666Z,51.83
